Time;durP1;ratioP1;P1;durP2;ratioP2;P2;SDS_P1;SDS_P2;PMS_P1;PMS_P2;Temp;Humidity;BMP_temperature;BMP_pressure;BME280_temperature;BME280_humidity;BME280_pressure;Samples;Min_cycle;Max_cycle;Signal;HPM_P1;HPM_P2
2024/04/09 00:00:39;;;;;;;15.32;7.70;;;;;;;19.33;57.75;100292.16;5176758;27;98042;-92
2024/04/09 00:03:05;;;;;;;14.25;7.35;;;;;;;19.31;57.69;100301.06;5204355;27;94758;-92
2024/04/09 00:05:33;;;;;;;14.07;6.85;;;;;;;19.28;58.01;100309.09;5176501;27;95047;-92
2024/04/09 00:07:59;;;;;;;14.13;6.40;;;;;;;19.24;58.04;100303.03;5203826;27;98479;-92
2024/04/09 00:10:25;;;;;;;12.88;6.15;;;;;;;19.20;57.91;100307.56;5203675;27;98394;-92
2024/04/09 00:12:52;;;;;;;16.10;5.93;;;;;;;19.17;57.87;100341.16;5175247;27;94698;-92
2024/04/09 00:15:18;;;;;;;12.32;5.53;;;;;;;19.08;58.16;100354.66;5174033;27;94931;-91
2024/04/09 00:17:54;;;;;;;12.45;4.90;;;;;;;19.03;57.96;100353.00;5202211;27;94825;-92
2024/04/09 00:20:23;;;;;;;12.60;4.78;;;;;;;18.99;58.63;100340.78;5202416;27;98722;-92
2024/04/09 00:22:49;;;;;;;;;;;;;;;18.94;57.78;100342.72;5173547;27;94862;-91
2024/04/09 00:25:18;;;;;;;10.35;4.47;;;;;;;18.99;58.29;100342.59;5204169;27;95040;-92
2024/04/09 00:27:44;;;;;;;;;;;;;;;18.92;57.63;100338.41;5203526;27;95567;-92
2024/04/09 00:30:09;;;;;;;7.47;3.03;;;;;;;18.91;57.80;100323.44;5174590;27;98532;-92
2024/04/09 00:32:36;;;;;;;7.13;2.60;;;;;;;18.85;58.13;100331.56;5172263;27;94844;-91
2024/04/09 00:35:03;;;;;;;6.90;2.50;;;;;;;18.80;57.81;100327.22;5201499;27;95009;-91
2024/04/09 00:37:29;;;;;;;6.30;1.67;;;;;;;18.77;58.16;100311.50;5176324;26;98196;-91
2024/04/09 00:39:55;;;;;;;5.07;1.55;;;;;;;18.74;57.99;100308.94;5218174;27;98780;-91
2024/04/09 00:42:20;;;;;;;7.97;1.70;;;;;;;18.71;58.00;100322.22;5226287;27;95139;-91
2024/04/09 00:44:48;;;;;;;4.43;1.63;;;;;;;18.69;58.16;100326.69;5222893;27;94979;-91
2024/04/09 00:47:16;;;;;;;7.97;2.05;;;;;;;18.69;57.90;100342.53;5214055;27;95771;-91
2024/04/09 00:49:45;;;;;;;4.53;1.73;;;;;;;18.67;57.86;100344.38;5211034;27;95830;-91
2024/04/09 00:52:12;;;;;;;5.22;1.60;;;;;;;18.67;57.92;100362.84;5224935;26;94818;-92
2024/04/09 00:54:39;;;;;;;3.95;1.50;;;;;;;18.65;58.01;100354.97;5220582;27;94780;-91
2024/04/09 00:57:05;;;;;;;5.75;1.60;;;;;;;18.65;58.15;100351.47;5181275;27;98487;-91
2024/04/09 00:59:32;;;;;;;6.47;1.58;;;;;;;18.63;58.06;100356.78;5186365;27;98910;-90
2024/04/09 01:02:00;;;;;;;5.65;1.90;;;;;;;18.61;58.53;100355.13;5187359;27;94862;-91
2024/04/09 01:04:25;;;;;;;8.23;1.85;;;;;;;18.59;58.32;100372.75;5193611;27;95011;-92
2024/04/09 01:06:51;;;;;;;7.13;1.60;;;;;;;18.56;58.12;100392.22;5207812;27;97473;-91
2024/04/09 01:09:17;;;;;;;5.20;1.67;;;;;;;18.54;58.44;100409.00;5189978;27;98727;-91
2024/04/09 01:11:42;;;;;;;7.82;1.65;;;;;;;18.49;58.55;100414.41;5221940;26;94855;-92
2024/04/09 01:14:08;;;;;;;8.20;1.88;;;;;;;18.46;58.77;100415.34;5180646;27;94957;-92
2024/04/09 01:16:34;;;;;;;6.88;2.00;;;;;;;18.43;58.57;100425.13;5185926;27;98578;-91
2024/04/09 01:19:00;;;;;;;7.25;1.70;;;;;;;18.39;58.67;100420.84;5222078;27;98331;-91
2024/04/09 01:21:25;;;;;;;6.85;1.98;;;;;;;18.37;58.78;100420.88;5210943;27;94789;-92
2024/04/09 01:23:52;;;;;;;7.53;2.28;;;;;;;18.38;59.01;100421.78;5249726;26;94924;-92
2024/04/09 01:26:18;;;;;;;8.10;2.25;;;;;;;18.36;59.06;100413.88;5220992;27;98140;-93
2024/04/09 01:28:46;;;;;;;4.53;1.55;;;;;;;18.33;59.12;100406.03;5191542;27;98705;-93
2024/04/09 01:31:15;;;;;;;5.80;2.08;;;;;;;18.30;59.12;100403.47;5209476;27;94724;-92
2024/04/09 01:33:42;;;;;;;4.07;1.55;;;;;;;18.26;59.18;100399.19;5219980;27;94830;-93
2024/04/09 01:36:10;;;;;;;5.97;1.70;;;;;;;18.24;59.39;100387.81;5212760;27;96028;-94
2024/04/09 01:38:36;;;;;;;7.07;2.25;;;;;;;18.22;59.29;100374.66;5178096;27;98636;-94
2024/04/09 01:41:02;;;;;;;6.38;1.48;;;;;;;18.19;59.57;100377.34;5199352;27;94665;-93
2024/04/09 01:43:28;;;;;;;4.03;1.63;;;;;;;18.17;59.52;100379.19;5176264;27;94936;-93
2024/04/09 01:45:53;;;;;;;5.10;1.58;;;;;;;18.15;59.48;100393.34;5169878;27;98754;-94
2024/04/09 01:48:19;;;;;;;6.55;1.73;;;;;;;18.10;59.45;100393.44;5198694;27;97913;-93
2024/04/09 01:50:44;;;;;;;4.57;1.80;;;;;;;18.07;59.69;100401.44;5234707;27;94932;-93
2024/04/09 01:53:10;;;;;;;4.35;1.50;;;;;;;18.03;59.80;100402.41;5177176;27;94679;-93
2024/04/09 01:55:36;;;;;;;5.63;1.63;;;;;;;18.00;60.23;100403.38;5232763;27;98790;-95
2024/04/09 01:58:04;;;;;;;6.18;1.42;;;;;;;17.99;60.18;100403.41;5204963;27;102094;-94
2024/04/09 02:00:30;;;;;;;4.78;1.55;;;;;;;17.97;60.06;100411.38;5206075;27;94688;-95
2024/04/09 02:02:57;;;;;;;5.75;1.83;;;;;;;17.92;60.36;100402.69;5209239;27;94872;-95
2024/04/09 02:05:22;;;;;;;5.00;1.65;;;;;;;17.90;60.43;100396.59;5215648;27;97931;-95
2024/04/09 02:07:48;;;;;;;6.22;1.63;;;;;;;17.88;60.49;100391.34;5211143;27;98619;-96
2024/04/09 02:10:14;;;;;;;4.00;1.48;;;;;;;17.85;60.61;100367.66;5212395;27;95179;-96
2024/04/09 02:12:42;;;;;;;3.08;1.30;;;;;;;17.85;60.91;100348.31;5213360;27;94666;-95
2024/04/09 02:15:08;;;;;;;6.28;2.00;;;;;;;17.84;60.88;100343.94;5212850;27;98521;-96
2024/04/09 02:17:34;;;;;;;5.43;1.80;;;;;;;17.84;60.73;100317.53;5213333;27;96829;-96
2024/04/09 02:19:59;;;;;;;2.80;1.40;;;;;;;17.83;60.88;100344.84;5211821;27;94615;-94
2024/04/09 02:22:28;;;;;;;3.53;1.33;;;;;;;17.82;61.08;100394.09;5203868;27;94940;-94
2024/04/09 02:24:54;;;;;;;4.28;1.88;;;;;;;17.79;61.07;100417.94;5178831;27;98486;-96
2024/04/09 02:27:21;;;;;;;5.72;1.90;;;;;;;17.78;61.31;100431.16;5206819;27;98185;-94
2024/04/09 02:29:46;;;;;;;3.53;1.60;;;;;;;17.78;61.32;100450.47;5185826;27;94782;-94
2024/04/09 02:32:12;;;;;;;6.05;1.88;;;;;;;17.80;61.57;100453.94;5179152;27;94979;-93
2024/04/09 02:34:37;;;;;;;6.18;2.00;;;;;;;17.79;61.57;100454.84;5194976;27;98528;-93
2024/04/09 02:37:06;;;;;;;8.15;2.85;;;;;;;17.80;61.51;100463.63;5205380;27;98569;-92
2024/04/09 02:39:32;;;;;;;8.25;2.85;;;;;;;17.78;61.49;100479.50;5210252;27;94798;-92
2024/04/09 02:42:02;;;;;;;5.82;2.63;;;;;;;17.76;60.93;100483.94;5198397;27;94987;-93
2024/04/09 02:44:29;;;;;;;5.97;2.63;;;;;;;17.71;60.68;100485.81;5180336;27;98471;-93
2024/04/09 02:46:55;;;;;;;6.00;2.05;;;;;;;17.65;60.42;100476.28;5190263;27;99475;-93
2024/04/09 02:49:20;;;;;;;6.47;2.30;;;;;;;17.59;60.34;100479.03;5211150;27;94772;-94
2024/04/09 02:51:46;;;;;;;7.10;1.85;;;;;;;17.55;60.55;100473.88;5192206;27;94790;-93
2024/04/09 02:54:11;;;;;;;4.88;1.80;;;;;;;17.49;60.10;100481.00;5172832;27;98362;-93
2024/04/09 02:56:37;;;;;;;4.75;1.83;;;;;;;17.45;60.12;100479.34;5245907;26;98340;-93
2024/04/09 02:59:03;;;;;;;11.60;1.83;;;;;;;17.38;59.66;100479.50;5194162;27;94726;-93
2024/04/09 03:01:29;;;;;;;5.13;1.48;;;;;;;17.32;59.66;100475.22;5185880;27;95271;-92
2024/04/09 03:03:55;;;;;;;6.40;2.03;;;;;;;17.27;59.61;100477.09;5187675;27;97547;-92
2024/04/09 03:06:21;;;;;;;5.30;1.77;;;;;;;17.23;59.60;100475.44;5216807;27;97618;-91
2024/04/09 03:08:47;;;;;;;3.22;1.48;;;;;;;17.20;59.96;100499.22;5220415;26;94797;-92
2024/04/09 03:11:14;;;;;;;7.45;1.50;;;;;;;17.16;59.85;100484.38;5196562;27;94982;-91
2024/04/09 03:13:41;;;;;;;4.97;1.95;;;;;;;17.14;59.68;100489.66;5197573;27;98472;-92
2024/04/09 03:16:12;;;;;;;4.78;1.60;;;;;;;17.10;59.70;100488.84;5220413;27;95515;-91
2024/04/09 03:18:37;;;;;;;10.75;1.65;;;;;;;17.11;59.78;100477.44;5199165;27;94789;-91
2024/04/09 03:21:03;;;;;;;5.30;1.55;;;;;;;17.10;59.86;100462.50;5198835;27;94929;-91
2024/04/09 03:23:29;;;;;;;7.35;1.63;;;;;;;17.08;59.64;100459.03;5215287;26;98415;-91
2024/04/09 03:25:54;;;;;;;5.97;1.35;;;;;;;17.08;59.62;100477.47;5208738;27;95800;-92
2024/04/09 03:28:20;;;;;;;7.32;1.30;;;;;;;17.06;59.35;100491.59;5218936;27;94711;-91
2024/04/09 03:30:55;;;;;;;5.43;1.70;;;;;;;17.04;59.66;100488.09;5183117;27;94898;-91
2024/04/09 03:33:20;;;;;;;9.40;2.17;;;;;;;17.04;59.87;100474.94;5210411;27;97301;-91
2024/04/09 03:35:51;;;;;;;6.50;2.08;;;;;;;17.05;59.67;100474.91;5211020;27;97468;-91
2024/04/09 03:38:16;;;;;;;5.40;1.80;;;;;;;17.07;59.57;100466.97;5184716;27;94814;-91
2024/04/09 03:40:41;;;;;;;6.95;2.00;;;;;;;17.05;59.66;100477.53;5224962;26;95099;-91
2024/04/09 03:43:07;;;;;;;6.03;2.00;;;;;;;17.06;59.64;100479.28;5202825;27;98405;-91
2024/04/09 03:45:32;;;;;;;5.53;1.90;;;;;;;17.07;59.67;100490.69;5213646;26;95845;-90
2024/04/09 03:47:58;;;;;;;9.70;2.55;;;;;;;17.06;59.67;100502.16;5194887;27;94740;-91
2024/04/09 03:50:23;;;;;;;8.05;2.00;;;;;;;17.04;59.71;100504.81;5180444;27;94928;-91
2024/04/09 03:52:48;;;;;;;7.10;2.00;;;;;;;17.06;60.07;100495.09;5178982;27;98467;-91
2024/04/09 03:55:14;;;;;;;8.32;2.03;;;;;;;17.06;59.92;100486.34;5183386;27;98839;-91
2024/04/09 03:57:40;;;;;;;5.70;2.17;;;;;;;17.04;59.73;100481.09;5185192;27;94923;-91
2024/04/09 04:00:11;;;;;;;9.48;2.10;;;;;;;17.03;59.99;100483.75;5212963;27;94768;-90
2024/04/09 04:02:37;;;;;;;7.60;2.47;;;;;;;17.02;60.15;100482.00;5221019;27;94831;-90
2024/04/09 04:05:02;;;;;;;9.57;3.00;;;;;;;17.03;60.16;100483.75;5221473;27;98297;-91
2024/04/09 04:07:28;;;;;;;7.03;2.60;;;;;;;17.03;60.08;100503.06;5186392;27;94889;-90
2024/04/09 04:09:53;;;;;;;8.68;2.70;;;;;;;17.02;59.97;100508.34;5208813;27;94866;-91
2024/04/09 04:12:18;;;;;;;9.30;3.92;;;;;;;16.98;59.87;100509.31;5221087;26;98021;-90
2024/04/09 04:14:45;;;;;;;10.70;3.78;;;;;;;16.97;60.08;100512.84;5188369;27;98752;-91
2024/04/09 04:17:10;;;;;;;11.50;3.80;;;;;;;16.96;60.46;100514.59;5184604;27;94815;-90
2024/04/09 04:19:36;;;;;;;11.52;4.82;;;;;;;16.97;60.18;100526.91;5221305;26;95061;-91
2024/04/09 04:22:01;;;;;;;11.05;5.07;;;;;;;16.96;59.95;100537.47;5193211;27;97520;-92
2024/04/09 04:24:29;;;;;;;13.93;5.40;;;;;;;16.96;59.87;100537.47;5194771;27;97354;-91
2024/04/09 04:26:54;;;;;;;13.00;5.32;;;;;;;16.95;59.95;100536.56;5201084;27;94843;-92
2024/04/09 04:29:20;;;;;;;13.32;5.70;;;;;;;16.93;59.91;100548.91;5207927;27;94943;-90
2024/04/09 04:31:45;;;;;;;17.25;4.90;;;;;;;16.93;59.55;100551.53;5215480;27;95601;-90
2024/04/09 04:34:11;;;;;;;10.82;4.30;;;;;;;16.92;59.64;100553.31;5193543;26;95738;-91
2024/04/09 04:36:36;;;;;;;9.98;4.13;;;;;;;16.90;59.49;100570.91;5214422;26;94981;-90
2024/04/09 04:39:03;;;;;;;9.73;3.20;;;;;;;16.87;59.32;100583.28;5215937;27;94951;-91
2024/04/09 04:41:28;;;;;;;7.18;2.33;;;;;;;16.84;58.80;100592.09;5208493;27;95869;-90
2024/04/09 04:43:55;;;;;;;8.65;2.28;;;;;;;16.80;58.57;100586.88;5185865;27;98636;-90
2024/04/09 04:46:21;;;;;;;9.23;2.10;;;;;;;16.75;58.47;100584.31;5219280;27;94963;-92
2024/04/09 04:48:47;;;;;;;8.88;2.17;;;;;;;16.72;58.49;100597.56;5188209;27;95112;-90
2024/04/09 04:51:12;;;;;;;7.50;2.03;;;;;;;16.69;58.35;100595.81;5171648;26;98466;-88
2024/04/09 04:53:38;;;;;;;7.82;1.80;;;;;;;16.69;58.14;100593.19;5200871;27;98789;-94
2024/04/09 04:56:12;;;;;;;7.20;1.90;;;;;;;16.67;58.03;100594.13;5207468;26;94856;-91
2024/04/09 04:58:55;;;;;;;11.27;2.00;;;;;;;16.66;58.20;100613.44;5204276;27;95029;-91
2024/04/09 05:01:21;;;;;;;11.00;2.40;;;;;;;16.63;58.06;100613.47;5214609;27;95541;-91
2024/04/09 05:03:46;;;;;;;8.40;2.30;;;;;;;16.59;57.96;100612.66;5199081;26;98309;-93
2024/04/09 05:06:12;;;;;;;10.23;2.40;;;;;;;16.52;57.85;100616.28;5189601;27;94768;-91
2024/04/09 05:08:38;;;;;;;7.30;2.22;;;;;;;16.44;57.60;100629.59;5225092;27;94982;-90
2024/04/09 05:11:07;;;;;;;11.43;2.35;;;;;;;16.35;58.11;100635.84;5205320;26;95605;-89
2024/04/09 05:13:33;;;;;;;8.23;2.28;;;;;;;16.30;58.25;100645.56;5200768;27;98284;-90
2024/04/09 05:15:58;;;;;;;10.18;2.33;;;;;;;16.24;58.22;100639.50;5175801;27;94828;-91
2024/04/09 05:18:24;;;;;;;8.63;2.05;;;;;;;16.18;58.49;100646.63;5159448;27;95391;-90
2024/04/09 05:20:50;;;;;;;9.50;2.60;;;;;;;16.15;58.73;100637.91;5202979;27;94887;-93
2024/04/09 05:23:16;;;;;;;7.55;2.72;;;;;;;16.10;58.56;100652.88;5177081;27;98224;-89
2024/04/09 05:25:41;;;;;;;11.02;2.50;;;;;;;16.03;58.65;100657.34;5176645;27;94870;-90
2024/04/09 05:28:06;;;;;;;10.18;2.83;;;;;;;15.97;59.02;100653.03;5207702;27;94860;-91
2024/04/09 05:30:32;;;;;;;6.13;2.53;;;;;;;15.93;59.13;100637.31;5174947;27;98503;-92
2024/04/09 05:32:57;;;;;;;7.18;2.72;;;;;;;15.89;59.29;100652.25;5186933;27;98496;-90
2024/04/09 05:35:25;;;;;;;9.05;2.58;;;;;;;15.85;59.60;100663.72;5201903;27;94961;-92
2024/04/09 05:37:51;;;;;;;9.20;2.17;;;;;;;15.80;59.25;100682.16;5149084;27;94966;-94
2024/04/09 05:40:16;;;;;;;12.50;3.05;;;;;;;15.76;59.50;100675.22;5177717;27;94764;-92
2024/04/09 05:42:44;;;;;;;8.48;2.38;;;;;;;15.73;59.63;100682.22;5178113;27;96637;-93
2024/04/09 05:45:12;;;;;;;7.28;2.58;;;;;;;15.69;59.65;100684.03;5207927;27;94786;-92
2024/04/09 05:47:38;;;;;;;10.23;2.13;;;;;;;15.66;59.83;100675.31;5177261;27;94720;-92
2024/04/09 05:50:05;;;;;;;7.70;2.03;;;;;;;15.61;59.80;100657.81;5200214;27;98385;-90
2024/04/09 05:52:31;;;;;;;6.57;2.22;;;;;;;15.60;59.88;100660.47;5175234;27;98427;-92
2024/04/09 05:54:58;;;;;;;7.22;2.20;;;;;;;15.60;60.16;100657.84;5175564;27;94917;-92
2024/04/09 05:57:23;;;;;;;9.50;2.42;;;;;;;15.58;60.22;100663.13;5198007;27;94937;-91
2024/04/09 05:59:49;;;;;;;9.73;2.03;;;;;;;15.58;59.98;100662.25;5188028;27;98478;-91
2024/04/09 06:02:14;;;;;;;6.28;2.10;;;;;;;15.53;60.06;100662.28;5183742;27;99294;-93
2024/04/09 06:04:39;;;;;;;12.02;2.35;;;;;;;15.50;59.91;100664.06;5196599;27;95060;-91
2024/04/09 06:07:05;;;;;;;6.00;2.20;;;;;;;15.49;59.93;100675.47;5191333;27;94977;-92
2024/04/09 06:09:30;;;;;;;7.57;2.38;;;;;;;15.44;59.96;100678.16;5229470;26;98380;-90
2024/04/09 06:11:56;;;;;;;6.82;2.05;;;;;;;15.41;59.92;100686.06;5177670;27;98490;-91
2024/04/09 06:14:22;;;;;;;6.85;1.83;;;;;;;15.36;59.93;100696.59;5174006;27;94789;-91
2024/04/09 06:16:47;;;;;;;7.63;2.20;;;;;;;15.31;59.74;100684.41;5221213;27;95084;-93
2024/04/09 06:19:13;;;;;;;9.85;2.30;;;;;;;15.26;59.78;100680.94;5228129;27;98796;-91
2024/04/09 06:21:38;;;;;;;9.98;1.98;;;;;;;15.22;59.63;100670.50;5177484;27;98322;-91
2024/04/09 06:24:04;;;;;;;9.48;1.92;;;;;;;15.18;60.02;100658.25;5203800;27;94660;-90
2024/04/09 06:26:29;;;;;;;11.82;2.50;;;;;;;15.17;60.20;100643.38;5191771;27;94808;-91
2024/04/09 06:28:55;;;;;;;7.28;2.08;;;;;;;15.17;60.35;100632.00;5199013;27;95513;-92
2024/04/09 06:31:20;;;;;;;12.05;2.83;;;;;;;15.21;60.75;100641.59;5204015;27;95805;-91
2024/04/09 06:33:49;;;;;;;5.82;2.03;;;;;;;15.25;60.58;100637.19;5205329;27;94883;-91
2024/04/09 06:36:15;;;;;;;8.45;2.50;;;;;;;15.28;60.50;100639.78;5202577;27;94810;-92
2024/04/09 06:38:40;;;;;;;9.35;2.55;;;;;;;15.30;60.67;100643.28;5203232;27;95809;-91
2024/04/09 06:41:06;;;;;;;7.60;2.80;;;;;;;15.30;60.45;100644.13;5203633;27;98649;-91
2024/04/09 06:43:31;;;;;;;12.75;2.95;;;;;;;15.34;60.42;100642.34;5201946;27;94747;-92
2024/04/09 06:45:57;;;;;;;7.25;2.88;;;;;;;15.38;60.87;100647.56;5200449;27;94965;-92
2024/04/09 06:48:22;;;;;;;8.10;2.72;;;;;;;15.45;60.59;100652.75;5174457;27;98396;-92
2024/04/09 06:50:48;;;;;;;6.78;2.53;;;;;;;15.49;60.51;100642.19;5184048;27;98511;-91
2024/04/09 06:53:13;;;;;;;5.93;2.80;;;;;;;15.53;60.44;100657.03;5204090;27;94779;-92
2024/04/09 06:55:39;;;;;;;10.18;2.40;;;;;;;15.56;60.36;100650.84;5217894;26;95404;-92
2024/04/09 06:58:04;;;;;;;11.63;3.08;;;;;;;15.60;60.12;100652.59;5207813;27;95774;-91
2024/04/09 07:00:29;;;;;;;10.48;2.90;;;;;;;15.64;60.31;100650.78;5216683;27;98651;-92
2024/04/09 07:02:57;;;;;;;6.80;2.42;;;;;;;15.66;59.88;100655.13;5203964;27;94729;-93
2024/04/09 07:05:23;;;;;;;7.22;2.50;;;;;;;15.67;59.40;100672.66;5202062;27;94823;-91
2024/04/09 07:07:48;;;;;;;7.45;2.45;;;;;;;15.68;58.88;100684.91;5206206;27;94931;-92
2024/04/09 07:10:14;;;;;;;5.50;2.15;;;;;;;15.69;59.03;100697.16;5198310;27;98383;-92
2024/04/09 07:12:39;;;;;;;7.72;1.90;;;;;;;15.74;59.14;100712.88;5195385;27;94685;-91
2024/04/09 07:15:06;;;;;;;8.82;1.40;;;;;;;15.79;58.34;100716.38;5201737;27;94713;-92
2024/04/09 07:17:32;;;;;;;4.40;1.27;;;;;;;15.83;58.06;100717.19;5208341;27;95902;-92
2024/04/09 07:20:01;;;;;;;5.95;1.45;;;;;;;15.90;57.95;100721.50;5201881;27;98471;-92
2024/04/09 07:22:26;;;;;;;6.22;1.23;;;;;;;16.01;57.49;100731.91;5206721;27;95014;-92
2024/04/09 07:24:52;;;;;;;4.40;1.30;;;;;;;16.07;57.21;100732.72;5220941;26;94849;-92
2024/04/09 07:27:18;;;;;;;5.72;1.60;;;;;;;16.11;56.77;100731.81;5166336;27;97247;-92
2024/04/09 07:29:43;;;;;;;6.13;1.42;;;;;;;16.21;57.22;100729.06;5169762;27;97047;-90
2024/04/09 07:32:11;;;;;;;6.10;1.73;;;;;;;16.37;57.18;100731.44;5174294;27;94778;-92
2024/04/09 07:34:36;;;;;;;4.28;1.50;;;;;;;16.52;56.31;100727.75;5212313;27;94997;-92
2024/04/09 07:37:02;;;;;;;8.15;1.80;;;;;;;16.54;55.58;100736.50;5177900;27;98005;-92
2024/04/09 07:39:28;;;;;;;4.93;1.52;;;;;;;16.53;55.43;100740.00;5188794;27;94724;-93
2024/04/09 07:41:53;;;;;;;5.78;1.95;;;;;;;16.51;54.87;100733.91;5224645;26;94815;-92
2024/04/09 07:44:19;;;;;;;10.82;2.05;;;;;;;16.44;54.88;100747.19;5168041;27;94966;-93
2024/04/09 07:46:48;;;;;;;4.53;1.17;;;;;;;16.36;53.72;100753.41;5166660;27;98153;-92
2024/04/09 07:49:14;;;;;;;4.88;1.20;;;;;;;16.26;52.93;100756.19;5205501;27;98543;-93
2024/04/09 07:51:40;;;;;;;3.53;1.00;;;;;;;16.18;52.96;100751.88;5171869;27;94926;-93
2024/04/09 07:54:06;;;;;;;5.97;1.17;;;;;;;16.13;51.99;100768.59;5186295;27;94902;-92
2024/04/09 07:56:32;;;;;;;2.30;0.98;;;;;;;16.06;51.69;100765.19;5192901;27;98057;-92
2024/04/09 07:58:57;;;;;;;6.57;1.23;;;;;;;16.03;51.73;100769.63;5195803;27;95910;-92
2024/04/09 08:01:22;;;;;;;5.90;1.23;;;;;;;16.02;51.55;100766.09;5163459;27;94818;-91
2024/04/09 08:03:48;;;;;;;4.20;1.00;;;;;;;16.09;51.77;100767.75;5167428;27;94964;-93
2024/04/09 08:06:13;;;;;;;6.88;1.00;;;;;;;16.16;51.52;100777.31;5190970;27;95490;-93
2024/04/09 08:08:39;;;;;;;5.25;0.98;;;;;;;16.26;51.04;100759.69;5199263;27;96588;-91
2024/04/09 08:11:08;;;;;;;5.35;1.30;;;;;;;16.30;51.13;100758.75;5201133;27;94909;-93
2024/04/09 08:13:34;;;;;;;5.32;1.30;;;;;;;16.40;50.85;100775.31;5190092;26;94998;-93
2024/04/09 08:15:59;;;;;;;5.70;1.15;;;;;;;16.44;50.66;100777.00;5217132;26;95636;-93
2024/04/09 08:18:25;;;;;;;5.35;0.93;;;;;;;16.41;50.39;100778.81;5212268;27;98103;-93
2024/04/09 08:20:51;;;;;;;4.63;1.00;;;;;;;16.37;50.08;100784.09;5203077;26;94850;-94
2024/04/09 08:23:20;;;;;;;4.68;1.35;;;;;;;16.27;48.70;100774.56;5185014;27;94963;-91
2024/04/09 08:25:45;;;;;;;5.88;1.02;;;;;;;16.18;49.01;100778.22;5198990;27;97708;-92
2024/04/09 08:28:11;;;;;;;3.92;0.90;;;;;;;16.08;48.67;100787.09;5200129;27;95576;-92
2024/04/09 08:30:37;;;;;;;4.60;1.10;;;;;;;15.99;48.90;100809.09;5189114;27;94866;-92
2024/04/09 08:33:05;;;;;;;4.75;1.00;;;;;;;15.92;48.71;100815.31;5179902;27;95004;-93
2024/04/09 08:35:30;;;;;;;4.13;1.02;;;;;;;15.85;48.80;100816.25;5170579;27;97333;-93
2024/04/09 08:37:56;;;;;;;4.32;1.00;;;;;;;15.78;48.84;100810.19;5198904;27;98453;-92
2024/04/09 08:40:21;;;;;;;3.85;1.02;;;;;;;15.74;49.16;100813.72;5215551;26;94783;-92
2024/04/09 08:42:50;;;;;;;4.00;0.95;;;;;;;15.74;49.42;100818.06;5198259;27;94854;-91
2024/04/09 08:45:18;;;;;;;7.28;1.33;;;;;;;15.74;49.32;100831.22;5172128;27;98435;-93
2024/04/09 08:47:44;;;;;;;4.82;1.23;;;;;;;15.66;48.71;100847.06;5215202;27;96499;-90
2024/04/09 08:50:12;;;;;;;5.97;1.00;;;;;;;15.60;49.03;100844.50;5176042;27;94806;-89
2024/04/09 08:52:38;;;;;;;4.93;1.50;;;;;;;15.55;49.04;100860.31;5214852;27;94977;-89
2024/04/09 08:55:06;;;;;;;7.00;1.75;;;;;;;15.53;48.88;100862.06;5170201;27;98456;-94
2024/04/09 08:57:31;;;;;;;7.55;1.42;;;;;;;15.47;48.68;100870.03;5170213;27;98733;-91
2024/04/09 08:59:57;;;;;;;7.43;1.55;;;;;;;15.41;48.53;100875.31;5177102;27;94914;-92
2024/04/09 09:02:23;;;;;;;4.65;1.40;;;;;;;15.35;48.86;100868.34;5176839;27;94945;-91
2024/04/09 09:04:49;;;;;;;4.60;1.30;;;;;;;15.35;48.97;100867.47;5180561;27;95895;-93
2024/04/09 09:07:16;;;;;;;5.13;1.13;;;;;;;15.35;49.34;100859.59;5183886;27;95901;-91
2024/04/09 09:09:43;;;;;;;4.47;1.10;;;;;;;15.38;49.23;100865.69;5217971;27;94814;-93
2024/04/09 09:12:09;;;;;;;5.03;1.33;;;;;;;15.41;48.87;100856.91;5204655;26;95050;-92
2024/04/09 09:14:35;;;;;;;4.60;1.55;;;;;;;15.43;49.28;100860.38;5202823;27;98533;-91
2024/04/09 09:17:11;;;;;;;3.90;1.40;;;;;;;15.48;48.88;100858.59;5215817;27;98691;-92
2024/04/09 09:19:36;;;;;;;4.50;1.27;;;;;;;15.53;48.50;100863.84;5193402;27;94870;-92
2024/04/09 09:22:06;;;;;;;4.55;1.40;;;;;;;15.52;48.56;100865.56;5199771;27;95014;-93
2024/04/09 09:24:32;;;;;;;7.22;1.52;;;;;;;15.54;48.70;100839.28;5211682;27;96808;-91
2024/04/09 09:27:05;;;;;;;3.53;1.35;;;;;;;15.56;48.56;100858.53;5197239;27;94895;-91
2024/04/09 09:29:32;;;;;;;4.82;1.40;;;;;;;15.59;48.62;100867.28;5181103;27;94815;-92
2024/04/09 09:32:01;;;;;;;4.97;0.98;;;;;;;15.61;47.97;100864.63;5213476;27;95050;-91
2024/04/09 09:34:39;;;;;;;;;;;;;;;15.60;48.95;100855.88;5209451;27;98462;-90
2024/04/09 09:37:09;;;;;;;4.03;0.90;;;;;;;15.71;48.72;100855.78;5188403;27;98468;-93
2024/04/09 09:39:36;;;;;;;5.10;1.02;;;;;;;15.79;48.81;100866.28;5187425;27;94843;-93
2024/04/09 09:42:04;;;;;;;4.22;1.25;;;;;;;15.90;48.88;100867.06;5204291;27;95032;-93
2024/04/09 09:44:35;;;;;;;5.13;1.52;;;;;;;16.02;48.33;100866.06;5176039;27;96472;-92
2024/04/09 09:47:03;;;;;;;3.28;0.95;;;;;;;16.09;47.92;100862.47;5193857;27;97790;-91
2024/04/09 09:49:29;;;;;;;3.35;1.10;;;;;;;16.12;47.37;100856.34;5197356;27;94848;-92
2024/04/09 09:51:56;;;;;;;4.53;1.20;;;;;;;16.14;47.46;100884.38;5192771;27;95156;-92
2024/04/09 09:54:22;;;;;;;5.20;1.05;;;;;;;16.20;47.52;100872.91;5188533;27;97910;-94
2024/04/09 09:56:51;;;;;;;3.22;1.00;;;;;;;16.31;46.84;100870.16;5190548;26;94841;-92
2024/04/09 09:59:19;;;;;;;5.18;1.10;;;;;;;16.32;46.36;100870.13;5196819;27;94730;-91
2024/04/09 10:01:50;;;;;;;3.25;0.88;;;;;;;16.31;46.44;100870.16;5211154;27;94854;-92
2024/04/09 10:04:19;;;;;;;4.03;0.90;;;;;;;16.32;46.33;100858.75;5176007;27;98533;-91
2024/04/09 10:07:03;;;;;;;2.30;1.20;;;;;;;16.27;46.34;100864.06;5196552;27;98641;-93
2024/04/09 10:09:52;;;;;;;5.22;1.10;;;;;;;16.28;46.46;100862.31;5165511;27;94933;-94
2024/04/09 10:12:30;;;;;;;5.45;1.00;;;;;;;16.32;46.29;100864.88;5199216;26;95024;-91
2024/04/09 10:15:16;;;;;;;6.28;0.88;;;;;;;16.32;46.13;100861.38;5162267;27;98468;-93
2024/04/09 10:17:47;;;;;;;5.43;0.95;;;;;;;16.36;45.85;100870.97;5160907;27;98718;-92
2024/04/09 10:20:27;;;;;;;6.60;1.17;;;;;;;16.33;45.92;100871.03;5197904;27;94881;-92
2024/04/09 10:22:54;;;;;;;5.43;1.13;;;;;;;16.34;45.46;100875.38;5196578;27;95083;-91
2024/04/09 10:25:21;;;;;;;4.65;0.98;;;;;;;16.30;45.76;100871.91;5196634;27;98825;-92
2024/04/09 10:27:47;;;;;;;6.75;1.13;;;;;;;16.27;45.72;100874.56;5174572;27;97303;-94
2024/04/09 10:30:13;;;;;;;5.03;1.00;;;;;;;16.29;46.32;100880.72;5184086;26;94737;-94
2024/04/09 10:32:38;;;;;;;4.28;0.90;;;;;;;16.31;45.69;100868.41;5173519;27;95925;-92
2024/04/09 10:35:13;;;;;;;4.80;1.00;;;;;;;16.31;45.52;100878.03;5204519;27;97859;-91
2024/04/09 10:37:40;;;;;;;4.38;1.08;;;;;;;16.32;45.41;100891.19;5202523;27;98485;-90
2024/04/09 10:40:06;;;;;;;3.65;1.17;;;;;;;16.33;45.39;100898.22;5173375;27;94928;-93
2024/04/09 10:42:32;;;;;;;2.75;0.95;;;;;;;16.31;44.98;100891.22;5181202;27;95016;-93
2024/04/09 10:44:58;;;;;;;5.30;0.93;;;;;;;16.31;45.67;100893.84;5175877;27;94973;-92
2024/04/09 10:47:23;;;;;;;6.20;1.30;;;;;;;16.33;45.28;100900.00;5195812;27;97795;-92
2024/04/09 10:49:48;;;;;;;4.90;1.20;;;;;;;16.32;44.75;100914.88;5182019;27;94852;-93
2024/04/09 10:52:14;;;;;;;5.25;1.02;;;;;;;16.29;44.81;100916.69;5169642;27;95052;-91
2024/04/09 10:54:39;;;;;;;5.13;1.38;;;;;;;16.28;44.98;100915.81;5198860;27;95976;-91
2024/04/09 10:57:05;;;;;;;4.68;1.10;;;;;;;16.29;45.05;100907.03;5218404;26;94983;-92
2024/04/09 10:59:31;;;;;;;2.97;1.05;;;;;;;16.35;44.85;100916.63;5168981;27;94865;-91
2024/04/09 11:01:57;;;;;;;2.95;0.75;;;;;;;16.34;44.78;100904.34;5218697;27;95209;-92
2024/04/09 11:04:22;;;;;;;3.80;1.00;;;;;;;16.29;44.32;100912.31;5195695;27;98715;-92
2024/04/09 11:06:49;;;;;;;7.15;1.33;;;;;;;16.24;44.46;100903.59;5141972;27;98592;-92
2024/04/09 11:09:21;;;;;;;4.82;1.10;;;;;;;16.20;44.74;100914.16;5217821;26;94788;-93
2024/04/09 11:11:46;;;;;;;4.38;1.30;;;;;;;16.24;44.90;100905.31;5165771;27;94808;-93
2024/04/09 11:14:12;;;;;;;3.50;0.80;;;;;;;16.25;44.91;100910.56;5212646;26;94871;-93
2024/04/09 11:16:48;;;;;;;4.70;1.13;;;;;;;16.26;44.94;100911.47;5166031;27;98316;-92
2024/04/09 11:19:32;;;;;;;2.75;0.90;;;;;;;16.24;45.18;100918.47;5181407;27;94763;-92
2024/04/09 11:21:58;;;;;;;5.95;1.58;;;;;;;16.24;44.91;100922.00;5211140;27;94826;-93